North Egremont, Massachusetts
Current Conditions -  °F | °C
As of 6:08 AM on Thursday 23 Oct 2014 (Local Time) from KPSF Reporting Station
Heavy Rain Heavy Rain  
Wind Chill: 46°   Ceiling: 5000
Heat Index: 46°   Visibility: 3mi
Dew Point: 44°   Wind: 3mph
Humidity: 93%   Direction: NA
Pressure: 29.76"   Gusts: NA
Location:  42.2°N, 73.44°W
Report Text: KPSF 231008Z AUTO VRB03KT 3SM +RA BR FEW009 SCT018 OVC050 08/07 A2976 RMK AO2 P0008 T00780067
Loading
Personal Weather Stations






























Interactive Weather Map
Tropical Storm Tracking
New forecast layout! Learn more

10-Day Weather Forecast

Advertisements
Track Severe Weather on mobile